createdAt,value
2024-05-09T00:00:45.791Z,83.70
2024-05-09T00:03:14.100Z,83.80
2024-05-09T00:05:43.788Z,84.30
2024-05-09T00:08:12.604Z,83.60
2024-05-09T00:10:41.495Z,83.80
2024-05-09T00:13:11.097Z,83.90
2024-05-09T00:15:39.495Z,83.90
2024-05-09T00:18:08.673Z,83.90
2024-05-09T00:20:40.058Z,83.70
2024-05-09T00:23:15.769Z,84.00
2024-05-09T00:25:44.463Z,84.20
2024-05-09T00:28:13.564Z,84.50
2024-05-09T00:30:41.698Z,84.60
2024-05-09T00:33:10.832Z,84.90
2024-05-09T00:35:40.149Z,84.80
2024-05-09T00:38:08.477Z,84.60
2024-05-09T00:40:42.229Z,84.80
2024-05-09T00:43:13.132Z,84.60
2024-05-09T00:45:43.642Z,85.00
2024-05-09T00:48:16.506Z,85.30
2024-05-09T00:50:47.509Z,85.50
2024-05-09T00:53:17.414Z,85.30
2024-05-09T00:55:46.852Z,84.80
2024-05-09T00:58:19.341Z,84.60
2024-05-09T01:00:48.318Z,84.70
2024-05-09T01:03:16.476Z,84.00
2024-05-09T01:05:45.109Z,84.50
2024-05-09T01:08:13.519Z,84.60
2024-05-09T01:10:45.031Z,84.80
2024-05-09T01:13:14.250Z,85.00
2024-05-09T01:15:43.133Z,85.30
2024-05-09T01:18:12.656Z,85.20
2024-05-09T01:20:44.249Z,84.70
2024-05-09T01:23:15.637Z,84.20
2024-05-09T01:25:46.681Z,84.30
2024-05-09T01:28:16.540Z,84.50
2024-05-09T01:30:46.007Z,85.30
2024-05-09T01:33:14.239Z,85.20
2024-05-09T01:35:43.287Z,85.30
2024-05-09T01:38:13.916Z,85.30
2024-05-09T01:40:43.544Z,85.30
2024-05-09T01:43:12.278Z,85.70
2024-05-09T01:45:41.548Z,85.90
2024-05-09T01:48:10.998Z,86.70
2024-05-09T01:50:42.198Z,86.90
2024-05-09T01:53:15.023Z,87.10
2024-05-09T01:55:44.155Z,87.60
2024-05-09T01:58:13.161Z,87.30
2024-05-09T02:00:42.853Z,87.10
2024-05-09T02:03:16.076Z,86.70
2024-05-09T02:05:47.564Z,86.50
2024-05-09T02:08:21.719Z,85.80
2024-05-09T02:10:50.603Z,85.90
2024-05-09T02:13:19.170Z,85.50
2024-05-09T02:15:47.142Z,86.50
2024-05-09T02:18:15.174Z,86.80
2024-05-09T02:20:43.980Z,87.00
2024-05-09T02:23:12.638Z,87.00
2024-05-09T02:25:41.889Z,86.70
2024-05-09T02:28:09.938Z,86.70
2024-05-09T02:30:41.092Z,86.70
2024-05-09T02:33:12.838Z,86.50
2024-05-09T02:35:44.118Z,86.50
2024-05-09T02:38:13.359Z,86.20
2024-05-09T02:40:41.643Z,86.30
2024-05-09T02:43:13.042Z,85.50
2024-05-09T02:45:41.884Z,85.50
2024-05-09T02:48:14.139Z,85.30
2024-05-09T02:50:44.549Z,85.00
2024-05-09T02:53:14.652Z,85.80
2024-05-09T02:55:43.337Z,86.30
2024-05-09T02:58:11.898Z,85.80
2024-05-09T03:00:42.201Z,85.00
2024-05-09T03:03:14.066Z,85.00
2024-05-09T03:05:44.621Z,85.10
2024-05-09T03:08:13.266Z,85.10
2024-05-09T03:10:41.680Z,85.40
2024-05-09T03:13:15.724Z,86.20
2024-05-09T03:15:45.268Z,86.20
2024-05-09T03:18:13.911Z,87.10
2024-05-09T03:20:44.435Z,87.70
2024-05-09T03:23:12.981Z,87.50
2024-05-09T03:25:41.081Z,88.10
2024-05-09T03:28:09.039Z,88.60
2024-05-09T03:30:41.807Z,89.30
2024-05-09T03:33:19.271Z,89.60
2024-05-09T03:35:49.516Z,89.30
2024-05-09T03:38:17.708Z,89.70
2024-05-09T03:40:49.012Z,89.60
2024-05-09T03:43:19.223Z,88.80
2024-05-09T03:45:50.577Z,89.30
2024-05-09T03:48:18.743Z,89.40
2024-05-09T03:50:47.261Z,89.00
2024-05-09T03:53:16.550Z,88.50
2024-05-09T03:55:48.641Z,89.50
2024-05-09T03:58:16.512Z,89.30
2024-05-09T04:00:44.669Z,89.60
2024-05-09T04:03:13.454Z,89.20
2024-05-09T04:05:43.108Z,89.00
2024-05-09T04:08:15.374Z,89.80
2024-05-09T04:10:44.128Z,90.20
2024-05-09T04:13:12.280Z,90.50
2024-05-09T04:15:40.287Z,89.70
2024-05-09T04:18:08.499Z,90.10
2024-05-09T04:20:39.723Z,90.60
2024-05-09T04:23:14.629Z,89.80
2024-05-09T04:25:45.459Z,90.70
2024-05-09T04:28:14.430Z,90.40
2024-05-09T04:30:43.439Z,91.00
2024-05-09T04:33:13.825Z,90.80
2024-05-09T04:35:43.833Z,90.70
2024-05-09T04:38:14.272Z,90.80
2024-05-09T04:40:43.520Z,91.00
2024-05-09T04:43:16.323Z,90.70
2024-05-09T04:45:44.532Z,90.80
2024-05-09T04:48:12.622Z,90.70
2024-05-09T04:50:40.983Z,90.90
2024-05-09T04:53:10.659Z,91.10
2024-05-09T04:55:40.628Z,91.20
2024-05-09T04:58:09.746Z,92.10
2024-05-09T05:00:40.499Z,93.20
2024-05-09T05:03:14.221Z,92.70
2024-05-09T05:05:45.589Z,92.70
2024-05-09T05:08:19.276Z,95.20
2024-05-09T05:10:49.032Z,97.30
2024-05-09T05:13:21.585Z,98.90
2024-05-09T05:15:58.378Z,99.40
2024-05-09T05:18:28.576Z,99.90
2024-05-09T05:20:57.375Z,99.90
2024-05-09T05:23:25.574Z,99.90
2024-05-09T05:25:55.674Z,99.90
2024-05-09T05:28:24.298Z,99.90
2024-05-09T05:30:52.382Z,99.90
2024-05-09T05:33:22.526Z,99.90
2024-05-09T05:35:51.340Z,99.90
2024-05-09T05:38:21.286Z,99.90
2024-05-09T05:40:50.777Z,99.90
2024-05-09T05:43:19.496Z,99.60
2024-05-09T05:45:47.713Z,98.80
2024-05-09T05:48:17.454Z,98.60
2024-05-09T05:50:46.089Z,98.40
2024-05-09T05:53:14.575Z,99.00
2024-05-09T05:55:42.958Z,98.80
2024-05-09T05:58:12.183Z,98.30
2024-05-09T06:00:42.131Z,97.80
2024-05-09T06:03:13.034Z,98.00
2024-05-09T06:05:46.031Z,97.80
2024-05-09T06:08:14.492Z,97.50
2024-05-09T06:10:42.906Z,97.10
2024-05-09T06:13:13.487Z,96.50
2024-05-09T06:15:42.171Z,96.00
2024-05-09T06:18:12.272Z,95.30
2024-05-09T06:20:43.354Z,94.80
2024-05-09T06:23:13.279Z,94.20
2024-05-09T06:25:42.760Z,94.10
2024-05-09T06:28:11.594Z,93.00
2024-05-09T06:30:42.330Z,92.80
2024-05-09T06:33:14.442Z,92.50
2024-05-09T06:35:46.783Z,92.20
2024-05-09T06:38:15.038Z,91.50
2024-05-09T06:40:44.175Z,92.80
2024-05-09T06:43:18.149Z,91.50
2024-05-09T06:45:49.057Z,89.60
2024-05-09T06:48:21.831Z,88.90
2024-05-09T06:50:50.852Z,88.10
2024-05-09T06:53:23.359Z,87.50
2024-05-09T06:55:51.775Z,87.70
2024-05-09T06:58:19.812Z,87.80
2024-05-09T07:00:47.732Z,87.10
2024-05-09T07:03:18.219Z,86.50
2024-05-09T07:05:49.158Z,86.30
2024-05-09T07:08:18.941Z,86.20
2024-05-09T07:10:47.525Z,86.00
2024-05-09T07:13:16.031Z,85.40
2024-05-09T07:15:44.070Z,84.80
2024-05-09T07:18:16.700Z,84.60
2024-05-09T07:20:46.910Z,84.70
2024-05-09T07:23:16.017Z,85.10
2024-05-09T07:25:44.211Z,84.50
2024-05-09T07:28:21.384Z,84.20
2024-05-09T07:30:49.254Z,83.20
2024-05-09T07:33:23.165Z,83.50
2024-05-09T07:35:52.961Z,83.10
2024-05-09T07:38:21.276Z,82.30
2024-05-09T07:40:49.650Z,81.30
2024-05-09T07:43:17.699Z,81.30
2024-05-09T07:45:52.545Z,80.00
2024-05-09T07:52:39.050Z,80.50
2024-05-09T07:53:48.301Z,80.50
2024-05-09T07:56:22.363Z,79.20
2024-05-09T07:58:56.019Z,78.20
2024-05-09T08:01:26.513Z,77.80
2024-05-09T08:03:55.732Z,76.50
2024-05-09T08:06:24.743Z,76.80
2024-05-09T08:08:52.775Z,76.50
2024-05-09T08:11:20.922Z,76.10
2024-05-09T08:13:48.929Z,76.00
2024-05-09T08:16:16.832Z,75.70
2024-05-09T08:18:44.876Z,75.60
2024-05-09T08:21:12.936Z,75.40
2024-05-09T08:23:40.903Z,75.00
2024-05-09T08:26:09.220Z,74.80
2024-05-09T08:28:37.055Z,73.00
2024-05-09T08:31:07.017Z,73.30
2024-05-09T08:33:35.596Z,73.70
2024-05-09T08:36:04.436Z,73.20
2024-05-09T08:38:32.400Z,72.00
2024-05-09T08:41:03.839Z,71.30
2024-05-09T08:43:32.057Z,70.60
2024-05-09T08:46:02.472Z,70.60
2024-05-09T08:48:34.635Z,67.60
2024-05-09T08:51:03.243Z,71.00
2024-05-09T08:53:31.328Z,70.60
2024-05-09T08:56:04.566Z,70.20
2024-05-09T08:58:34.935Z,69.40
2024-05-09T09:01:05.198Z,69.60
2024-05-09T09:03:36.848Z,69.80
2024-05-09T09:06:14.655Z,68.40
2024-05-09T09:08:44.429Z,66.70
2024-05-09T09:11:12.593Z,68.50
2024-05-09T09:13:40.592Z,67.80
2024-05-09T09:16:08.862Z,67.30
2024-05-09T09:19:59.437Z,65.50
2024-05-09T09:22:27.872Z,68.10
2024-05-09T09:24:55.901Z,67.10
2024-05-09T09:27:24.037Z,67.30
2024-05-09T09:29:52.014Z,65.70
2024-05-09T09:32:19.987Z,66.00
2024-05-09T09:34:48.568Z,66.40
2024-05-09T09:37:20.851Z,63.30
2024-05-09T09:39:49.487Z,64.10
2024-05-09T09:42:21.291Z,62.70
2024-05-09T09:44:58.224Z,63.10
2024-05-09T09:47:33.394Z,63.60
2024-05-09T09:50:07.070Z,62.00
2024-05-09T09:52:37.891Z,61.90
2024-05-09T09:55:06.946Z,60.80
2024-05-09T09:57:37.419Z,60.10
2024-05-09T10:00:11.634Z,61.90
2024-05-09T10:02:43.703Z,58.50
2024-05-09T10:05:12.028Z,61.30
2024-05-09T10:07:43.635Z,60.30
2024-05-09T10:10:16.146Z,60.00
2024-05-09T10:13:13.049Z,58.40
2024-05-09T10:15:52.628Z,58.70
2024-05-09T10:18:28.412Z,57.80
2024-05-09T10:20:59.663Z,58.60
2024-05-09T10:23:29.018Z,56.90
2024-05-09T10:26:05.235Z,56.30
2024-05-09T10:28:38.049Z,56.50
2024-05-09T10:31:15.025Z,55.80
2024-05-09T10:33:50.236Z,52.70
2024-05-09T10:36:27.149Z,56.00
2024-05-09T10:38:55.786Z,52.50
2024-05-09T10:41:24.183Z,54.30
2024-05-09T10:43:52.668Z,53.40
2024-05-09T10:46:20.764Z,52.90
2024-05-09T10:48:50.823Z,47.70
2024-05-09T10:51:21.604Z,48.10
2024-05-09T10:53:49.450Z,50.20
2024-05-09T10:56:17.594Z,52.30
2024-05-09T10:58:45.724Z,52.20
2024-05-09T11:01:14.412Z,52.60
2024-05-09T11:03:47.122Z,52.00
2024-05-09T11:06:18.744Z,49.50
2024-05-09T11:08:47.663Z,48.80
2024-05-09T11:11:16.402Z,49.50
2024-05-09T11:13:44.559Z,50.00
2024-05-09T11:16:21.278Z,49.80
2024-05-09T11:18:59.183Z,47.80
2024-05-09T11:21:27.697Z,46.10
2024-05-09T11:23:56.962Z,48.80
2024-05-09T11:26:25.508Z,47.90
2024-05-09T11:28:53.802Z,44.50
2024-05-09T11:31:22.004Z,44.80
2024-05-09T11:33:50.237Z,47.80
2024-05-09T11:36:18.188Z,47.80
2024-05-09T11:38:46.012Z,46.10
2024-05-09T11:41:21.064Z,47.30
2024-05-09T11:43:49.018Z,47.10
2024-05-09T11:46:17.383Z,42.70
2024-05-09T11:48:45.660Z,42.90
2024-05-09T11:51:13.640Z,44.90
2024-05-09T11:53:41.585Z,46.20
2024-05-09T11:56:11.710Z,46.10
2024-05-09T11:58:39.680Z,45.40
2024-05-09T12:01:07.726Z,47.10
2024-05-09T12:03:37.790Z,45.60
2024-05-09T12:06:06.172Z,44.40
2024-05-09T12:08:33.943Z,41.90
2024-05-09T12:11:01.816Z,43.70
2024-05-09T12:13:29.663Z,44.80
2024-05-09T12:15:57.474Z,45.40
2024-05-09T12:18:25.253Z,44.10
2024-05-09T12:20:53.255Z,43.50
2024-05-09T12:23:20.981Z,43.70
2024-05-09T12:25:50.023Z,43.10
2024-05-09T12:28:18.423Z,44.00
2024-05-09T12:30:46.470Z,41.80
2024-05-09T12:33:14.744Z,40.10
2024-05-09T12:35:45.374Z,39.90
2024-05-09T12:38:15.577Z,42.90
2024-05-09T12:40:43.680Z,42.90
2024-05-09T12:43:12.063Z,43.60
2024-05-09T12:45:40.751Z,42.70
2024-05-09T12:48:12.534Z,41.90
2024-05-09T12:50:42.032Z,41.10
2024-05-09T12:53:10.466Z,37.70
2024-05-09T12:55:45.100Z,39.90
2024-05-09T12:58:22.512Z,40.40
2024-05-09T13:00:52.611Z,39.00
2024-05-09T13:03:21.425Z,39.60
2024-05-09T13:05:51.507Z,36.40
2024-05-09T13:08:20.692Z,39.10
2024-05-09T13:10:50.365Z,39.90
2024-05-09T13:13:18.971Z,37.30
2024-05-09T13:15:47.463Z,39.50
2024-05-09T13:18:15.502Z,40.30
2024-05-09T13:20:44.914Z,38.80
2024-05-09T13:23:12.762Z,38.90
2024-05-09T13:25:40.599Z,37.60
2024-05-09T13:28:08.778Z,37.10
2024-05-09T13:30:40.717Z,36.70
2024-05-09T13:33:12.227Z,37.10
2024-05-09T13:35:47.706Z,34.20
2024-05-09T13:38:20.252Z,35.80
2024-05-09T13:40:49.387Z,35.10
2024-05-09T13:43:18.625Z,35.40
2024-05-09T13:45:47.687Z,36.10
2024-05-09T13:48:15.840Z,34.00
2024-05-09T13:50:43.866Z,37.20
2024-05-09T13:53:11.943Z,35.90
2024-05-09T13:55:40.474Z,34.50
2024-05-09T13:58:09.611Z,35.30
2024-05-09T14:00:46.659Z,31.70
2024-05-09T14:03:19.468Z,35.50
2024-05-09T14:05:51.158Z,35.00
2024-05-09T14:08:22.502Z,35.00
2024-05-09T14:10:52.423Z,29.80
2024-05-09T14:13:20.423Z,32.20
2024-05-09T14:15:48.831Z,33.30
2024-05-09T14:18:17.491Z,32.70
2024-05-09T14:20:45.212Z,31.10
2024-05-09T14:23:12.934Z,32.70
2024-05-09T14:25:42.837Z,33.20
2024-05-09T14:28:13.326Z,33.20
2024-05-09T14:30:42.971Z,30.00
2024-05-09T14:33:11.800Z,32.20
2024-05-09T14:35:39.899Z,32.00
2024-05-09T14:38:08.924Z,31.20
2024-05-09T14:40:42.406Z,31.30
2024-05-09T14:43:13.131Z,30.80
2024-05-09T14:45:42.171Z,31.60
2024-05-09T14:48:11.011Z,30.60
2024-05-09T14:50:40.525Z,30.20
2024-05-09T14:53:10.591Z,29.60
2024-05-09T14:55:40.043Z,29.10
2024-05-09T14:58:13.015Z,29.80
2024-05-09T15:00:46.699Z,29.20
2024-05-09T15:03:20.249Z,29.20
2024-05-09T15:05:50.034Z,31.40
2024-05-09T15:08:19.696Z,30.00
2024-05-09T15:10:50.454Z,30.70
2024-05-09T15:13:20.037Z,30.90
2024-05-09T15:15:48.602Z,30.20
2024-05-09T15:18:16.973Z,30.30
2024-05-09T15:20:45.603Z,29.00
2024-05-09T15:23:14.002Z,30.30
2024-05-09T15:25:41.802Z,29.60
2024-05-09T15:28:09.880Z,29.80
2024-05-09T15:30:37.946Z,29.90
2024-05-09T15:33:07.140Z,29.90
2024-05-09T15:35:36.218Z,29.70
2024-05-09T15:38:04.626Z,30.50
2024-05-09T15:40:39.523Z,30.80
2024-05-09T15:43:10.195Z,31.00
2024-05-09T15:45:40.515Z,31.70
2024-05-09T15:48:10.429Z,31.00
2024-05-09T15:50:41.423Z,31.10
2024-05-09T15:53:12.304Z,31.10
2024-05-09T15:55:41.641Z,31.30
2024-05-09T15:58:10.183Z,31.00
2024-05-09T16:00:41.691Z,29.30
2024-05-09T16:03:13.110Z,30.70
2024-05-09T16:05:46.343Z,29.60
2024-05-09T16:08:15.342Z,30.80
2024-05-09T16:10:46.124Z,30.30
2024-05-09T16:13:16.067Z,31.50
2024-05-09T16:15:44.208Z,31.80
2024-05-09T16:18:12.959Z,31.40
2024-05-09T16:20:42.467Z,30.10
2024-05-09T16:23:12.887Z,31.10
2024-05-09T16:25:45.462Z,29.60
2024-05-09T16:28:14.014Z,30.10
2024-05-09T16:30:42.116Z,30.90
2024-05-09T16:33:11.968Z,30.90
2024-05-09T16:35:40.234Z,29.80
2024-05-09T16:38:08.267Z,30.20
2024-05-09T16:40:40.091Z,29.70
2024-05-09T16:43:10.748Z,30.90
2024-05-09T16:45:41.892Z,30.80
2024-05-09T16:48:10.377Z,31.40
2024-05-09T16:50:39.149Z,31.60
2024-05-09T16:53:07.697Z,31.30
2024-05-09T16:55:36.361Z,31.60
2024-05-09T16:58:06.625Z,31.40
2024-05-09T17:00:40.899Z,30.30
2024-05-09T17:03:14.964Z,31.10
2024-05-09T17:05:47.160Z,31.20
2024-05-09T17:08:20.313Z,30.60
2024-05-09T17:10:49.520Z,30.90
2024-05-09T17:13:19.028Z,32.10
2024-05-09T17:15:48.122Z,33.20
2024-05-09T17:18:16.638Z,33.30
2024-05-09T17:20:44.695Z,33.50
2024-05-09T17:23:14.059Z,32.30
2024-05-09T17:25:42.770Z,32.50
2024-05-09T17:28:11.368Z,33.10
2024-05-09T17:30:41.022Z,33.40
2024-05-09T17:33:11.603Z,32.70
2024-05-09T17:35:41.082Z,33.30
2024-05-09T17:38:09.180Z,33.90
2024-05-09T17:40:38.506Z,34.20
2024-05-09T17:43:09.622Z,33.90
2024-05-09T17:45:40.360Z,34.20
2024-05-09T17:48:10.393Z,34.50
2024-05-09T17:50:39.596Z,34.40
2024-05-09T17:53:08.642Z,34.50
2024-05-09T17:55:36.822Z,34.60
2024-05-09T17:58:05.807Z,34.50
2024-05-09T18:00:39.269Z,34.70
2024-05-09T18:03:14.017Z,34.80
2024-05-09T18:05:44.029Z,34.40
2024-05-09T18:08:13.552Z,35.20
2024-05-09T18:10:42.339Z,35.10
2024-05-09T18:13:12.096Z,35.50
2024-05-09T18:15:40.543Z,35.80
2024-05-09T18:18:09.326Z,36.10
2024-05-09T18:20:43.710Z,36.40
2024-05-09T18:23:16.579Z,36.70
2024-05-09T18:25:46.065Z,37.20
2024-05-09T18:28:14.842Z,37.60
2024-05-09T18:30:43.338Z,37.90
2024-05-09T18:33:11.841Z,38.40
2024-05-09T18:35:43.334Z,38.10
2024-05-09T18:38:11.649Z,38.00
2024-05-09T18:40:41.163Z,38.00
2024-05-09T18:43:11.368Z,38.40
2024-05-09T18:45:39.597Z,39.00
2024-05-09T18:48:09.158Z,38.70
2024-05-09T18:50:40.207Z,39.00
2024-05-09T18:53:13.173Z,39.20
2024-05-09T18:55:44.429Z,39.30
2024-05-09T18:58:12.569Z,40.10
2024-05-09T19:00:42.906Z,40.00
2024-05-09T19:03:14.516Z,40.40
2024-05-09T19:05:44.682Z,41.00
2024-05-09T19:08:15.093Z,41.40
2024-05-09T19:10:43.623Z,41.50
2024-05-09T19:13:13.518Z,41.90
2024-05-09T19:15:43.148Z,42.00
2024-05-09T19:18:13.251Z,41.70
2024-05-09T19:20:42.103Z,42.00
2024-05-09T19:23:11.907Z,41.90
2024-05-09T19:25:39.881Z,41.60
2024-05-09T19:28:07.641Z,42.30
2024-05-09T19:30:40.292Z,42.70
2024-05-09T19:33:13.990Z,42.50
2024-05-09T19:35:43.057Z,43.30
2024-05-09T19:38:11.211Z,43.20
2024-05-09T19:40:39.150Z,43.20
2024-05-09T19:43:07.125Z,43.30
2024-05-09T19:45:36.143Z,43.30
2024-05-09T19:48:05.806Z,44.40
2024-05-09T19:50:41.385Z,44.20
2024-05-09T19:53:14.876Z,44.80
2024-05-09T19:55:43.132Z,44.70
2024-05-09T19:58:11.893Z,45.20
2024-05-09T20:00:42.706Z,45.70
2024-05-09T20:03:13.180Z,45.70
2024-05-09T20:05:45.893Z,46.20
2024-05-09T20:08:14.503Z,47.00
2024-05-09T20:10:42.384Z,47.00
2024-05-09T20:13:10.100Z,47.60
2024-05-09T20:15:38.647Z,48.20
2024-05-09T20:18:07.363Z,48.30
2024-05-09T20:20:39.691Z,49.00
2024-05-09T20:23:11.626Z,49.40
2024-05-09T20:25:39.951Z,49.20
2024-05-09T20:28:07.897Z,50.40
2024-05-09T20:30:36.558Z,51.00
2024-05-09T20:33:07.821Z,51.70
2024-05-09T20:35:36.992Z,51.70
2024-05-09T20:38:05.419Z,51.90
2024-05-09T20:40:37.549Z,52.30
2024-05-09T20:43:10.708Z,52.40
2024-05-09T20:45:39.333Z,53.50
2024-05-09T20:48:08.672Z,53.30
2024-05-09T20:50:40.650Z,54.10
2024-05-09T20:53:12.197Z,54.00
2024-05-09T20:55:40.843Z,53.90
2024-05-09T20:58:09.618Z,54.50
2024-05-09T21:00:41.382Z,55.30
2024-05-09T21:03:14.866Z,54.40
2024-05-09T21:05:44.306Z,54.20
2024-05-09T21:08:12.420Z,55.90
2024-05-09T21:10:40.529Z,56.30
2024-05-09T21:13:08.612Z,56.30
2024-05-09T21:15:36.702Z,56.90
2024-05-09T21:18:05.107Z,55.80
2024-05-09T21:20:35.008Z,55.60
2024-05-09T21:23:03.841Z,56.20
2024-05-09T21:25:32.447Z,56.30
2024-05-09T21:28:01.032Z,55.80
2024-05-09T21:30:38.514Z,56.60
2024-05-09T21:33:12.699Z,56.60
2024-05-09T21:35:45.634Z,56.60
2024-05-09T21:38:15.316Z,56.20
2024-05-09T21:40:43.812Z,56.80
2024-05-09T21:43:12.056Z,57.40
2024-05-09T21:45:40.008Z,56.80
2024-05-09T21:48:08.200Z,57.10
2024-05-09T21:50:40.473Z,57.80
2024-05-09T21:53:11.880Z,57.60
2024-05-09T21:55:40.261Z,57.90
2024-05-09T21:58:08.348Z,57.50
2024-05-09T22:00:39.300Z,57.20
2024-05-09T22:03:08.426Z,57.90
2024-05-09T22:05:37.758Z,57.60
2024-05-09T22:08:05.913Z,58.80
2024-05-09T22:10:36.074Z,59.60
2024-05-09T22:13:06.137Z,59.80
2024-05-09T22:15:39.706Z,59.80
2024-05-09T22:18:09.951Z,59.60
2024-05-09T22:20:45.589Z,59.90
2024-05-09T22:23:15.293Z,59.90
2024-05-09T22:25:43.191Z,59.90
2024-05-09T22:28:13.106Z,59.70
2024-05-09T22:30:41.361Z,59.50
2024-05-09T22:33:10.998Z,59.70
2024-05-09T22:35:40.988Z,60.10
2024-05-09T22:38:09.158Z,59.90
2024-05-09T22:40:45.615Z,60.60
2024-05-09T22:43:21.711Z,61.60
2024-05-09T22:45:51.782Z,61.30
2024-05-09T22:48:20.242Z,62.00
2024-05-09T22:50:48.130Z,61.70
2024-05-09T22:53:16.092Z,62.70
2024-05-09T22:55:43.818Z,63.10
2024-05-09T22:58:11.585Z,63.00
2024-05-09T23:00:39.625Z,62.90
2024-05-09T23:03:07.370Z,62.80
2024-05-09T23:05:35.199Z,62.80
2024-05-09T23:08:03.074Z,63.10
2024-05-09T23:10:35.867Z,63.10
2024-05-09T23:13:08.818Z,63.20
2024-05-09T23:15:38.452Z,62.70
2024-05-09T23:18:07.352Z,63.20
2024-05-09T23:20:38.793Z,62.60
2024-05-09T23:23:08.769Z,62.60
2024-05-09T23:25:37.524Z,62.60
2024-05-09T23:28:06.231Z,62.50
2024-05-09T23:30:38.473Z,62.20
2024-05-09T23:33:10.867Z,62.50
2024-05-09T23:35:41.000Z,62.30
2024-05-09T23:38:08.710Z,62.20
2024-05-09T23:40:39.797Z,62.60
2024-05-09T23:43:12.778Z,62.90
2024-05-09T23:45:41.930Z,63.00
2024-05-09T23:48:10.310Z,62.70
2024-05-09T23:50:39.812Z,63.50
2024-05-09T23:53:09.443Z,62.00
2024-05-09T23:55:38.482Z,62.30
2024-05-09T23:58:07.009Z,62.80
